createdAt,value
2023-05-25T00:01:02.435Z,7.20
2023-05-25T00:03:31.992Z,6.55
2023-05-25T00:06:01.842Z,6.90
2023-05-25T00:08:29.672Z,6.70
2023-05-25T00:10:56.606Z,6.30
2023-05-25T00:13:23.557Z,6.50
2023-05-25T00:15:50.756Z,6.75
2023-05-25T00:18:18.725Z,6.43
2023-05-25T00:20:47.671Z,6.55
2023-05-25T00:23:14.903Z,7.10
2023-05-25T00:25:41.918Z,6.68
2023-05-25T00:28:08.967Z,7.40
2023-05-25T00:30:36.028Z,6.95
2023-05-25T00:33:03.325Z,7.07
2023-05-25T00:35:30.295Z,6.80
2023-05-25T00:37:57.276Z,7.47
2023-05-25T00:40:25.182Z,6.78
2023-05-25T00:42:52.817Z,7.03
2023-05-25T00:45:19.805Z,7.03
2023-05-25T00:47:51.706Z,7.22
2023-05-25T00:50:21.997Z,6.90
2023-05-25T00:52:49.920Z,7.00
2023-05-25T00:55:17.529Z,7.20
2023-05-25T00:57:46.272Z,6.90
2023-05-25T01:00:14.507Z,6.65
2023-05-25T01:02:43.906Z,6.60
2023-05-25T01:05:12.607Z,7.00
2023-05-25T01:07:39.618Z,6.68
2023-05-25T01:10:07.318Z,7.15
2023-05-25T01:12:39.213Z,7.07
2023-05-25T01:15:06.767Z,6.70
2023-05-25T01:17:38.258Z,7.62
2023-05-25T01:20:11.125Z,6.85
2023-05-25T01:22:44.137Z,7.50
2023-05-25T01:25:22.073Z,8.50
2023-05-25T01:27:59.477Z,8.23
2023-05-25T01:30:27.471Z,7.78
2023-05-25T01:32:55.463Z,7.97
2023-05-25T01:35:22.865Z,8.23
2023-05-25T01:37:50.239Z,8.23
2023-05-25T01:40:19.194Z,7.28
2023-05-25T01:42:46.161Z,7.43
2023-05-25T01:45:14.167Z,7.87
2023-05-25T01:48:06.049Z,7.07
2023-05-25T01:50:55.374Z,7.65
2023-05-25T01:53:43.239Z,7.95
2023-05-25T01:56:11.813Z,7.72
2023-05-25T01:58:46.016Z,7.75
2023-05-25T02:01:15.411Z,7.40
2023-05-25T02:03:43.077Z,8.88
2023-05-25T02:06:10.070Z,8.07
2023-05-25T02:08:37.019Z,7.60
2023-05-25T02:11:03.962Z,8.52
2023-05-25T02:13:30.921Z,8.40
2023-05-25T02:15:57.848Z,8.13
2023-05-25T02:18:24.810Z,7.70
2023-05-25T02:20:51.937Z,8.10
2023-05-25T02:23:19.184Z,7.35
2023-05-25T02:25:46.665Z,7.90
2023-05-25T02:28:15.217Z,8.15
2023-05-25T02:30:42.136Z,7.68
2023-05-25T02:33:09.082Z,8.45
2023-05-25T02:35:36.343Z,8.45
2023-05-25T02:38:03.290Z,8.55
2023-05-25T02:40:30.221Z,7.95
2023-05-25T02:42:57.093Z,8.35
2023-05-25T02:45:23.956Z,8.63
2023-05-25T02:47:51.050Z,8.18
2023-05-25T02:50:17.916Z,7.90
2023-05-25T02:52:44.849Z,7.85
2023-05-25T02:55:13.760Z,7.97
2023-05-25T02:57:41.163Z,8.20
2023-05-25T03:00:08.573Z,7.95
2023-05-25T03:02:35.489Z,7.57
2023-05-25T03:05:04.357Z,8.02
2023-05-25T03:07:31.864Z,8.43
2023-05-25T03:09:59.651Z,7.95
2023-05-25T03:12:26.656Z,7.90
2023-05-25T03:14:53.545Z,7.87
2023-05-25T03:17:20.484Z,7.45
2023-05-25T03:19:47.422Z,6.93
2023-05-25T03:22:14.331Z,7.82
2023-05-25T03:24:41.882Z,7.70
2023-05-25T03:27:09.169Z,7.85
2023-05-25T03:29:36.127Z,7.18
2023-05-25T03:32:03.229Z,7.95
2023-05-25T03:34:30.420Z,8.63
2023-05-25T03:36:57.366Z,7.82
2023-05-25T03:39:24.259Z,8.80
2023-05-25T03:41:51.454Z,7.70
2023-05-25T03:44:18.360Z,8.00
2023-05-25T03:46:45.389Z,7.97
2023-05-25T03:49:14.288Z,7.78
2023-05-25T03:51:42.062Z,8.45
2023-05-25T03:54:09.074Z,7.57
2023-05-25T03:56:35.975Z,8.07
2023-05-25T03:59:02.962Z,7.87
2023-05-25T04:01:30.313Z,7.85
2023-05-25T04:03:57.566Z,7.95
2023-05-25T04:06:25.770Z,8.10
2023-05-25T04:08:53.145Z,7.68
2023-05-25T04:11:21.221Z,8.80
2023-05-25T04:13:48.111Z,8.55
2023-05-25T04:16:15.114Z,9.05
2023-05-25T04:18:42.058Z,8.55
2023-05-25T04:21:08.956Z,8.82
2023-05-25T04:23:35.978Z,9.07
2023-05-25T04:26:03.552Z,8.55
2023-05-25T04:28:30.838Z,8.02
2023-05-25T04:30:57.710Z,8.10
2023-05-25T04:33:24.952Z,8.68
2023-05-25T04:35:51.861Z,8.73
2023-05-25T04:38:18.787Z,8.57
2023-05-25T04:40:46.620Z,8.20
2023-05-25T04:43:13.884Z,8.35
2023-05-25T04:45:40.927Z,9.07
2023-05-25T04:48:07.856Z,9.02
2023-05-25T04:50:34.781Z,8.43
2023-05-25T04:53:01.726Z,8.65
2023-05-25T04:55:28.584Z,8.27
2023-05-25T04:57:55.507Z,8.68
2023-05-25T05:00:22.522Z,8.50
2023-05-25T05:02:50.174Z,8.88
2023-05-25T05:05:17.854Z,9.55
2023-05-25T05:07:44.787Z,9.55
2023-05-25T05:10:11.851Z,9.73
2023-05-25T05:12:38.796Z,10.02
2023-05-25T05:15:06.282Z,10.25
2023-05-25T05:17:33.416Z,9.65
2023-05-25T05:20:00.537Z,10.00
2023-05-25T05:22:27.664Z,10.07
2023-05-25T05:24:54.653Z,10.57
2023-05-25T05:27:21.527Z,10.50
2023-05-25T05:29:48.437Z,10.27
2023-05-25T05:32:15.366Z,9.77
2023-05-25T05:34:42.242Z,9.63
2023-05-25T05:37:09.115Z,9.43
2023-05-25T05:39:36.388Z,10.25
2023-05-25T05:42:03.655Z,9.35
2023-05-25T05:44:30.572Z,8.57
2023-05-25T05:47:01.430Z,9.82
2023-05-25T05:49:31.477Z,8.98
2023-05-25T05:51:58.619Z,8.32
2023-05-25T05:54:28.126Z,8.70
2023-05-25T05:56:55.189Z,8.73
2023-05-25T05:59:22.629Z,8.52
2023-05-25T06:01:49.800Z,8.55
2023-05-25T06:04:17.177Z,8.00
2023-05-25T06:06:45.452Z,8.40
2023-05-25T06:09:12.846Z,7.50
2023-05-25T06:11:40.321Z,8.05
2023-05-25T06:14:07.309Z,8.55
2023-05-25T06:16:34.441Z,8.10
2023-05-25T06:19:09.430Z,8.32
2023-05-25T06:21:37.774Z,7.87
2023-05-25T06:24:05.241Z,8.98
2023-05-25T06:26:32.405Z,7.78
2023-05-25T06:28:59.431Z,8.05
2023-05-25T06:31:26.686Z,7.65
2023-05-25T06:33:53.626Z,7.45
2023-05-25T06:36:20.777Z,7.90
2023-05-25T06:38:48.151Z,7.78
2023-05-25T06:41:15.523Z,7.80
2023-05-25T06:43:45.480Z,7.35
2023-05-25T06:46:18.068Z,7.45
2023-05-25T06:48:46.305Z,7.22
2023-05-25T06:51:13.524Z,7.60
2023-05-25T06:53:40.822Z,7.90
2023-05-25T06:56:07.822Z,7.53
2023-05-25T06:58:38.128Z,7.68
2023-05-25T07:01:05.872Z,7.75
2023-05-25T07:03:32.843Z,7.28
2023-05-25T07:06:00.008Z,7.37
2023-05-25T07:08:28.927Z,8.13
2023-05-25T07:10:55.962Z,7.55
2023-05-25T07:13:22.931Z,7.60
2023-05-25T07:15:50.016Z,7.40
2023-05-25T07:18:17.081Z,6.65
2023-05-25T07:20:44.447Z,7.30
2023-05-25T07:23:13.837Z,7.00
2023-05-25T07:25:41.732Z,7.10
2023-05-25T07:28:10.992Z,7.28
2023-05-25T07:30:37.866Z,6.10
2023-05-25T07:33:04.872Z,6.78
2023-05-25T07:35:31.838Z,6.62
2023-05-25T07:37:59.565Z,6.40
2023-05-25T07:40:26.849Z,6.37
2023-05-25T07:42:54.328Z,6.10
2023-05-25T07:45:21.690Z,6.43
2023-05-25T07:47:48.691Z,6.53
2023-05-25T07:50:15.752Z,6.90
2023-05-25T07:52:46.379Z,6.70
2023-05-25T07:55:13.544Z,5.82
2023-05-25T07:57:40.678Z,6.90
2023-05-25T08:00:13.997Z,6.60
2023-05-25T08:02:42.109Z,6.12
2023-05-25T08:05:10.368Z,6.87
2023-05-25T08:07:37.963Z,6.85
2023-05-25T08:10:13.507Z,6.15
2023-05-25T08:12:49.002Z,6.40
2023-05-25T08:17:44.945Z,6.43
2023-05-25T08:20:19.391Z,6.70
2023-05-25T08:22:46.453Z,6.85
2023-05-25T08:25:13.325Z,6.50
2023-05-25T08:27:40.425Z,6.72
2023-05-25T08:30:15.319Z,6.37
2023-05-25T08:32:42.332Z,6.00
2023-05-25T08:35:10.165Z,6.57
2023-05-25T08:37:37.075Z,6.20
2023-05-25T08:40:04.618Z,5.93
2023-05-25T08:42:31.597Z,6.37
2023-05-25T08:44:59.063Z,6.05
2023-05-25T08:47:28.608Z,6.68
2023-05-25T08:49:55.734Z,6.90
2023-05-25T08:52:24.404Z,6.35
2023-05-25T08:54:54.791Z,6.40
2023-05-25T08:57:35.222Z,6.70
2023-05-25T09:00:13.146Z,6.18
2023-05-25T09:02:42.724Z,6.10
2023-05-25T09:05:09.844Z,5.80
2023-05-25T09:07:37.033Z,6.32
2023-05-25T09:10:05.492Z,6.30
2023-05-25T09:12:32.633Z,6.10
2023-05-25T09:14:59.882Z,5.43
2023-05-25T09:17:27.391Z,5.37
2023-05-25T09:19:54.931Z,5.53
2023-05-25T09:22:22.099Z,5.70
2023-05-25T09:24:49.349Z,5.35
2023-05-25T09:27:20.729Z,5.43
2023-05-25T09:29:50.850Z,5.43
2023-05-25T09:32:18.732Z,5.62
2023-05-25T09:34:48.811Z,6.15
2023-05-25T09:37:19.377Z,5.78
2023-05-25T09:39:47.933Z,5.70
2023-05-25T09:42:15.054Z,5.68
2023-05-25T09:44:43.019Z,5.68
2023-05-25T09:47:10.269Z,5.30
2023-05-25T09:49:39.331Z,5.40
2023-05-25T09:52:06.685Z,5.68
2023-05-25T09:54:33.648Z,5.50
2023-05-25T09:57:03.849Z,5.37
2023-05-25T09:59:31.261Z,5.70
2023-05-25T10:01:59.173Z,5.50
2023-05-25T10:04:26.177Z,6.35
2023-05-25T10:06:53.895Z,5.53
2023-05-25T10:09:21.166Z,5.90
2023-05-25T10:11:48.557Z,5.50
2023-05-25T10:14:19.909Z,5.30
2023-05-25T10:16:50.225Z,5.93
2023-05-25T10:19:22.192Z,5.85
2023-05-25T10:22:01.874Z,6.00
2023-05-25T10:24:35.695Z,5.55
2023-05-25T10:27:14.517Z,5.65
2023-05-25T10:29:52.750Z,5.60
2023-05-25T10:32:19.678Z,5.90
2023-05-25T10:34:47.162Z,5.95
2023-05-25T10:37:14.994Z,5.80
2023-05-25T10:39:44.215Z,4.72
2023-05-25T10:42:13.349Z,5.55
2023-05-25T10:44:43.782Z,6.15
2023-05-25T10:47:11.120Z,5.45
2023-05-25T10:49:58.101Z,5.97
2023-05-25T10:52:29.449Z,6.47
2023-05-25T10:55:02.160Z,5.82
2023-05-25T10:57:29.206Z,5.95
2023-05-25T11:00:02.301Z,6.30
2023-05-25T11:02:29.590Z,6.40
2023-05-25T11:05:27.854Z,6.07
2023-05-25T11:07:56.522Z,6.20
2023-05-25T11:10:42.434Z,6.45
2023-05-25T11:13:39.756Z,6.45
2023-05-25T11:16:34.601Z,5.97
2023-05-25T11:19:02.331Z,5.95
2023-05-25T11:21:32.454Z,5.78
2023-05-25T11:24:06.881Z,5.50
2023-05-25T11:26:34.888Z,5.50
2023-05-25T11:29:12.182Z,5.90
2023-05-25T11:31:43.358Z,5.85
2023-05-25T11:34:12.528Z,5.95
2023-05-25T11:36:40.053Z,6.50
2023-05-25T11:39:17.239Z,6.40
2023-05-25T11:41:51.583Z,5.95
2023-05-25T11:44:28.507Z,5.55
2023-05-25T11:47:01.841Z,6.35
2023-05-25T11:49:29.991Z,6.40
2023-05-25T11:51:57.698Z,6.35
2023-05-25T11:54:27.032Z,6.05
2023-05-25T11:56:57.427Z,6.00
2023-05-25T11:59:26.913Z,6.30
2023-05-25T12:02:02.750Z,5.95
2023-05-25T12:04:30.813Z,6.30
2023-05-25T12:07:16.186Z,6.80
2023-05-25T12:09:43.089Z,6.30
2023-05-25T12:12:10.013Z,6.30
2023-05-25T12:14:47.383Z,6.68
2023-05-25T12:17:14.673Z,6.45
2023-05-25T12:19:41.791Z,6.40
2023-05-25T12:22:09.203Z,6.45
2023-05-25T12:24:36.193Z,6.35
2023-05-25T12:27:04.934Z,6.78
2023-05-25T12:29:31.999Z,6.30
2023-05-25T12:32:06.802Z,6.05
2023-05-25T12:34:34.832Z,6.57
2023-05-25T12:37:01.705Z,6.03
2023-05-25T12:39:31.382Z,6.15
2023-05-25T12:41:59.641Z,6.50
2023-05-25T12:44:29.001Z,6.35
2023-05-25T12:46:56.863Z,6.10
2023-05-25T12:49:29.219Z,6.40
2023-05-25T12:51:57.015Z,6.43
2023-05-25T12:54:45.171Z,7.18
2023-05-25T12:57:16.859Z,6.10
2023-05-25T12:59:47.713Z,5.82
2023-05-25T13:02:15.145Z,5.93
2023-05-25T13:04:42.636Z,6.25
2023-05-25T13:07:10.251Z,5.30
2023-05-25T13:09:37.771Z,5.82
2023-05-25T13:12:05.222Z,5.95
2023-05-25T13:14:32.186Z,5.78
2023-05-25T13:16:59.156Z,5.80
2023-05-25T13:19:27.058Z,5.12
2023-05-25T13:21:55.994Z,5.62
2023-05-25T13:24:22.973Z,5.30
2023-05-25T13:26:51.132Z,5.90
2023-05-25T13:29:18.464Z,6.18
2023-05-25T13:31:47.127Z,6.55
2023-05-25T13:34:14.104Z,5.87
2023-05-25T13:36:41.064Z,5.30
2023-05-25T13:39:10.921Z,6.20
2023-05-25T13:41:37.854Z,6.75
2023-05-25T13:44:04.855Z,6.65
2023-05-25T13:46:35.331Z,5.75
2023-05-25T13:49:05.027Z,5.50
2023-05-25T13:51:35.634Z,6.07
2023-05-25T13:54:03.296Z,5.47
2023-05-25T13:56:30.381Z,5.40
2023-05-25T13:58:57.274Z,6.12
2023-05-25T14:01:27.651Z,5.28
2023-05-25T14:03:56.018Z,6.03
2023-05-25T14:06:23.166Z,6.62
2023-05-25T14:08:50.060Z,5.55
2023-05-25T14:11:18.435Z,6.05
2023-05-25T14:13:48.777Z,5.82
2023-05-25T14:16:15.873Z,5.82
2023-05-25T14:18:42.865Z,5.85
2023-05-25T14:21:11.186Z,6.12
2023-05-25T14:23:38.088Z,5.20
2023-05-25T14:26:05.094Z,5.10
2023-05-25T14:28:32.004Z,5.32
2023-05-25T14:30:59.384Z,5.03
2023-05-25T14:33:26.369Z,5.28
2023-05-25T14:35:53.239Z,4.72
2023-05-25T14:38:20.163Z,5.55
2023-05-25T14:40:48.174Z,5.00
2023-05-25T14:43:18.800Z,5.60
2023-05-25T14:45:46.171Z,4.90
2023-05-25T14:48:16.719Z,5.50
2023-05-25T14:50:44.748Z,5.90
2023-05-25T14:53:12.049Z,5.70
2023-05-25T14:55:38.991Z,5.32
2023-05-25T14:58:05.940Z,5.53
2023-05-25T15:00:33.009Z,4.97
2023-05-25T15:03:04.236Z,5.60
2023-05-25T15:05:32.137Z,5.25
2023-05-25T15:07:59.265Z,5.32
2023-05-25T15:10:26.161Z,5.90
2023-05-25T15:12:53.017Z,5.37
2023-05-25T15:15:19.936Z,4.90
2023-05-25T15:17:50.854Z,4.97
2023-05-25T15:20:17.919Z,4.90
2023-05-25T15:22:45.751Z,5.70
2023-05-25T15:25:15.000Z,5.70
2023-05-25T15:27:45.941Z,6.00
2023-05-25T15:30:13.066Z,6.22
2023-05-25T15:32:40.012Z,5.82
2023-05-25T15:35:07.132Z,6.32
2023-05-25T15:37:36.352Z,6.03
2023-05-25T15:40:03.504Z,5.93
2023-05-25T15:42:30.416Z,5.60
2023-05-25T15:44:57.395Z,5.72
2023-05-25T15:47:24.400Z,5.43
2023-05-25T15:49:51.411Z,5.37
2023-05-25T15:52:18.289Z,6.15
2023-05-25T15:54:45.193Z,5.90
2023-05-25T15:57:12.079Z,5.68
2023-05-25T15:59:38.961Z,5.53
2023-05-25T16:02:06.003Z,6.20
2023-05-25T16:04:32.989Z,6.32
2023-05-25T16:07:01.264Z,5.93
2023-05-25T16:09:28.360Z,6.22
2023-05-25T16:11:55.269Z,6.60
2023-05-25T16:14:22.140Z,6.03
2023-05-25T16:16:49.209Z,5.60
2023-05-25T16:19:17.378Z,5.97
2023-05-25T16:21:44.329Z,6.15
2023-05-25T16:24:11.245Z,6.10
2023-05-25T16:26:38.148Z,6.00
2023-05-25T16:29:05.082Z,6.07
2023-05-25T16:31:32.085Z,6.03
2023-05-25T16:33:58.994Z,5.70
2023-05-25T16:36:26.809Z,6.47
2023-05-25T16:38:53.830Z,6.70
2023-05-25T16:41:20.807Z,5.97
2023-05-25T16:43:47.708Z,6.65
2023-05-25T16:46:14.598Z,6.05
2023-05-25T16:48:41.625Z,6.62
2023-05-25T16:51:15.009Z,6.78
2023-05-25T16:53:42.369Z,6.43
2023-05-25T16:56:09.472Z,6.70
2023-05-25T16:58:36.403Z,6.82
2023-05-25T17:01:03.322Z,6.45
2023-05-25T17:03:30.339Z,6.43
2023-05-25T17:05:57.383Z,7.03
2023-05-25T17:08:24.340Z,6.60
2023-05-25T17:10:51.288Z,7.28
2023-05-25T17:13:18.233Z,6.50
2023-05-25T17:15:45.396Z,7.07
2023-05-25T17:18:12.573Z,7.00
2023-05-25T17:20:39.679Z,7.30
2023-05-25T17:23:06.813Z,7.10
2023-05-25T17:25:34.314Z,6.62
2023-05-25T17:28:01.381Z,7.75
2023-05-25T17:30:28.279Z,7.43
2023-05-25T17:33:01.596Z,7.28
2023-05-25T17:35:31.601Z,7.00
2023-05-25T17:37:58.548Z,7.22
2023-05-25T17:40:25.519Z,8.20
2023-05-25T17:42:52.386Z,7.22
2023-05-25T17:45:19.388Z,7.60
2023-05-25T17:47:46.362Z,8.30
2023-05-25T17:50:13.370Z,7.37
2023-05-25T17:52:40.295Z,7.03
2023-05-25T17:55:07.848Z,8.20
2023-05-25T17:57:34.752Z,7.93
2023-05-25T18:00:02.039Z,8.30
2023-05-25T18:02:30.597Z,8.35
2023-05-25T18:04:57.676Z,7.53
2023-05-25T18:07:25.318Z,8.30
2023-05-25T18:09:52.294Z,8.07
2023-05-25T18:12:19.212Z,7.97
2023-05-25T18:14:46.130Z,7.60
2023-05-25T18:17:13.051Z,7.93
2023-05-25T18:19:40.053Z,8.02
2023-05-25T18:22:06.935Z,8.20
2023-05-25T18:24:33.879Z,8.10
2023-05-25T18:27:03.821Z,8.00
2023-05-25T18:29:31.154Z,7.70
2023-05-25T18:31:58.079Z,8.18
2023-05-25T18:34:24.999Z,8.23
2023-05-25T18:36:51.980Z,8.82
2023-05-25T18:39:18.854Z,8.20
2023-05-25T18:41:45.826Z,8.73
2023-05-25T18:44:12.978Z,7.82
2023-05-25T18:46:40.823Z,8.45
2023-05-25T18:49:07.822Z,8.63
2023-05-25T18:51:34.752Z,8.35
2023-05-25T18:54:01.797Z,7.97
2023-05-25T18:56:28.757Z,8.18
2023-05-25T18:58:57.224Z,7.72
2023-05-25T19:01:27.167Z,7.93
2023-05-25T19:03:56.734Z,8.10
2023-05-25T19:06:25.327Z,7.72
2023-05-25T19:08:52.211Z,7.97
2023-05-25T19:11:22.461Z,7.90
2023-05-25T19:13:49.414Z,8.25
2023-05-25T19:16:16.437Z,8.00
2023-05-25T19:18:43.476Z,8.43
2023-05-25T19:21:10.385Z,8.05
2023-05-25T19:23:37.295Z,7.72
2023-05-25T19:26:04.222Z,8.77
2023-05-25T19:28:31.765Z,8.20
2023-05-25T19:30:58.882Z,7.82
2023-05-25T19:33:25.784Z,7.85
2023-05-25T19:35:52.827Z,8.45
2023-05-25T19:38:19.878Z,7.57
2023-05-25T19:40:46.778Z,8.40
2023-05-25T19:43:13.653Z,8.27
2023-05-25T19:45:40.630Z,8.15
2023-05-25T19:48:07.586Z,9.07
2023-05-25T19:50:34.536Z,8.68
2023-05-25T19:53:01.798Z,8.88
2023-05-25T19:55:28.771Z,8.63
2023-05-25T19:57:55.710Z,8.85
2023-05-25T20:00:26.475Z,8.90
2023-05-25T20:02:54.544Z,9.00
2023-05-25T20:05:21.663Z,9.00
2023-05-25T20:07:50.531Z,8.57
2023-05-25T20:10:17.463Z,8.70
2023-05-25T20:12:44.365Z,9.07
2023-05-25T20:15:11.457Z,8.77
2023-05-25T20:17:38.475Z,8.00
2023-05-25T20:20:05.926Z,8.00
2023-05-25T20:22:33.285Z,8.27
2023-05-25T20:25:01.140Z,8.38
2023-05-25T20:27:28.360Z,8.55
2023-05-25T20:29:55.537Z,8.25
2023-05-25T20:32:22.564Z,8.27
2023-05-25T20:34:49.558Z,8.50
2023-05-25T20:37:17.253Z,8.32
2023-05-25T20:39:44.255Z,8.43
2023-05-25T20:42:11.916Z,8.77
2023-05-25T20:44:38.799Z,9.05
2023-05-25T20:47:06.143Z,8.55
2023-05-25T20:49:33.088Z,7.25
2023-05-25T20:52:00.409Z,7.25
2023-05-25T20:54:27.452Z,7.95
2023-05-25T20:56:54.463Z,7.68
2023-05-25T20:59:22.222Z,7.65
2023-05-25T21:01:49.314Z,7.85
2023-05-25T21:04:16.456Z,7.60
2023-05-25T21:06:43.551Z,7.57
2023-05-25T21:09:10.747Z,7.78
2023-05-25T21:11:37.682Z,8.02
2023-05-25T21:14:04.574Z,7.15
2023-05-25T21:16:31.499Z,7.65
2023-05-25T21:18:58.438Z,6.95
2023-05-25T21:21:25.797Z,7.18
2023-05-25T21:23:52.722Z,7.25
2023-05-25T21:26:19.664Z,7.90
2023-05-25T21:28:46.532Z,7.70
2023-05-25T21:31:13.496Z,7.53
2023-05-25T21:33:40.810Z,7.80
2023-05-25T21:36:08.008Z,7.22
2023-05-25T21:38:34.926Z,7.22
2023-05-25T21:41:01.849Z,7.03
2023-05-25T21:43:28.734Z,7.05
2023-05-25T21:45:55.636Z,7.87
2023-05-25T21:48:22.560Z,7.35
2023-05-25T21:50:50.985Z,7.32
2023-05-25T21:53:18.644Z,7.18
2023-05-25T21:55:46.743Z,7.70
2023-05-25T21:58:14.976Z,7.43
2023-05-25T22:00:41.888Z,6.68
2023-05-25T22:03:09.020Z,6.90
2023-05-25T22:05:36.056Z,7.22
2023-05-25T22:08:06.162Z,7.18
2023-05-25T22:10:33.080Z,6.35
2023-05-25T22:13:00.023Z,6.62
2023-05-25T22:15:26.892Z,7.20
2023-05-25T22:17:54.981Z,6.65
2023-05-25T22:20:22.007Z,7.03
2023-05-25T22:22:48.987Z,6.85
2023-05-25T22:25:16.675Z,6.40
2023-05-25T22:27:43.587Z,7.03
2023-05-25T22:30:10.938Z,6.90
2023-05-25T22:32:37.955Z,7.10
2023-05-25T22:35:05.234Z,6.62
2023-05-25T22:37:32.157Z,6.55
2023-05-25T22:39:59.117Z,6.10
2023-05-25T22:42:26.024Z,6.45
2023-05-25T22:44:52.943Z,6.30
2023-05-25T22:47:19.908Z,6.78
2023-05-25T22:49:46.869Z,6.93
2023-05-25T22:52:13.780Z,6.37
2023-05-25T22:54:40.727Z,6.62
2023-05-25T22:57:09.398Z,6.15
2023-05-25T22:59:36.657Z,6.78
2023-05-25T23:02:03.857Z,6.20
2023-05-25T23:04:30.942Z,5.93
2023-05-25T23:06:57.912Z,5.93
2023-05-25T23:09:24.801Z,6.05
2023-05-25T23:11:51.667Z,6.18
2023-05-25T23:14:18.549Z,6.12
2023-05-25T23:16:48.656Z,5.78
2023-05-25T23:19:16.966Z,5.95
2023-05-25T23:21:44.291Z,6.07
2023-05-25T23:24:11.315Z,6.35
2023-05-25T23:26:38.219Z,6.25
2023-05-25T23:29:05.184Z,5.97
2023-05-25T23:31:32.160Z,6.00
2023-05-25T23:33:59.173Z,6.47
2023-05-25T23:36:26.381Z,6.20
2023-05-25T23:38:53.339Z,6.03
2023-05-25T23:41:20.462Z,6.30
2023-05-25T23:43:47.429Z,6.40
2023-05-25T23:46:17.596Z,6.70
2023-05-25T23:48:47.485Z,6.18
2023-05-25T23:51:14.350Z,6.90
2023-05-25T23:53:41.256Z,6.40
2023-05-25T23:56:08.636Z,6.43
2023-05-25T23:58:35.849Z,6.40
